Time,TemperatureF,DewpointF,PressureIn,WindDirection,WindDirectionDegrees,WindSpeedMPH,WindSpeedGustMPH,Humidity,HourlyPrecipIn,Conditions,Clouds,dailyrainin,SolarRadiationWatts/m^2,SoftwareType,DateUTC
2013-04-12 00:03:00,30.4,29.1,29.85,NE,41,3.0,8.0,95,0.00,,,0.56,0.0,meteohub,2013-04-12 05:03:00,
2013-04-12 00:09:00,30.4,29.1,29.85,NE,42,2.0,10.0,95,0.01,,,0.56,0.0,meteohub,2013-04-12 05:09:00,
2013-04-12 00:16:00,30.4,29.1,29.85,NNE,22,2.0,9.0,95,0.01,,,0.00,0.0,meteohub,2013-04-12 05:16:00,
2013-04-12 00:22:00,30.4,29.3,29.85,NE,48,6.0,9.0,96,0.01,,,0.00,0.0,meteohub,2013-04-12 05:22:00,
2013-04-12 00:28:00,30.2,28.9,29.85,NE,40,3.0,8.0,95,0.01,,,0.00,0.0,meteohub,2013-04-12 05:28:00,
2013-04-12 00:34:00,30.2,28.9,29.85,NNE,31,2.0,8.0,95,0.01,,,0.00,0.0,meteohub,2013-04-12 05:34:00,
2013-04-12 00:40:00,30.0,28.8,29.85,NNE,30,3.0,8.0,95,0.01,,,0.00,0.0,meteohub,2013-04-12 05:40:00,
2013-04-12 00:47:00,30.0,28.9,29.85,NE,49,6.0,8.0,96,0.01,,,0.00,0.0,meteohub,2013-04-12 05:47:00,
2013-04-12 00:53:00,30.0,28.9,29.85,NNE,24,4.0,8.0,96,0.01,,,0.00,0.0,meteohub,2013-04-12 05:53:00,
2013-04-12 00:59:00,30.0,28.9,29.85,NE,40,1.0,7.0,96,0.01,,,0.00,0.0,meteohub,2013-04-12 05:59:00,
2013-04-12 01:05:00,30.0,28.9,29.84,NE,47,2.0,7.0,96,0.01,,,0.00,0.0,meteohub,2013-04-12 06:05:00,
2013-04-12 01:12:00,30.0,28.8,29.84,NNE,26,2.0,8.0,95,0.00,,,0.00,0.0,meteohub,2013-04-12 06:12:00,
2013-04-12 01:18:00,30.0,28.8,29.84,NNW,338,2.0,8.0,95,0.00,,,0.00,0.0,meteohub,2013-04-12 06:18:00,
2013-04-12 01:24:00,29.8,28.6,29.84,NE,42,2.0,8.0,95,0.00,,,0.00,0.0,meteohub,2013-04-12 06:24:00,
2013-04-12 01:31:00,29.8,28.6,29.84,NE,40,2.0,6.0,95,0.00,,,0.00,0.0,meteohub,2013-04-12 06:31:00,
2013-04-12 01:37:00,29.8,28.6,29.84,NE,34,2.0,6.0,95,0.00,,,0.01,0.0,meteohub,2013-04-12 06:37:00,
2013-04-12 01:44:00,29.8,28.6,29.84,NE,42,5.0,9.0,95,0.01,,,0.01,0.0,meteohub,2013-04-12 06:44:00,
2013-04-12 01:50:00,29.8,28.6,29.84,NNE,32,3.0,9.0,95,0.01,,,0.01,0.0,meteohub,2013-04-12 06:50:00,
2013-04-12 01:56:00,29.7,28.4,29.83,NE,39,2.0,9.0,95,0.01,,,0.01,0.0,meteohub,2013-04-12 06:56:00,
2013-04-12 02:02:00,29.7,28.4,29.83,NE,41,3.0,11.0,95,0.01,,,0.01,0.0,meteohub,2013-04-12 07:02:00,
2013-04-12 02:08:00,29.7,28.4,29.83,North,10,2.0,6.0,95,0.01,,,0.01,0.0,meteohub,2013-04-12 07:08:00,
2013-04-12 02:15:00,29.7,28.4,29.83,NNE,12,2.0,6.0,95,0.01,,,0.01,0.0,meteohub,2013-04-12 07:15:00,
2013-04-12 02:21:00,29.5,28.2,29.83,NE,40,3.0,6.0,95,0.01,,,0.01,0.0,meteohub,2013-04-12 07:21:00,
2013-04-12 02:27:00,29.5,28.2,29.83,NNE,28,2.0,6.0,95,0.01,,,0.01,0.0,meteohub,2013-04-12 07:27:00,
2013-04-12 02:33:00,29.3,28.0,29.83,NNE,33,2.0,8.0,95,0.01,,,0.01,0.0,meteohub,2013-04-12 07:33:00,
2013-04-12 02:39:00,29.3,28.0,29.83,NE,38,3.0,8.0,95,0.00,,,0.01,0.0,meteohub,2013-04-12 07:39:00,
2013-04-12 02:45:00,29.1,27.9,29.83,NNE,19,2.0,8.0,95,0.00,,,0.01,0.0,meteohub,2013-04-12 07:45:00,
2013-04-12 02:52:00,29.1,27.9,29.83,NE,39,1.0,5.0,95,0.00,,,0.01,0.0,meteohub,2013-04-12 07:52:00,
2013-04-12 02:58:00,28.9,27.7,29.83,NNW,348,5.0,7.0,95,0.00,,,0.01,0.0,meteohub,2013-04-12 07:58:00,
2013-04-12 03:05:00,28.9,27.7,29.83,North,5,1.0,7.0,95,0.00,,,0.01,0.0,meteohub,2013-04-12 08:05:00,
2013-04-12 03:11:00,28.9,27.7,29.83,NNE,20,2.0,7.0,95,0.00,,,0.01,0.0,meteohub,2013-04-12 08:11:00,
2013-04-12 03:17:00,28.9,27.7,29.83,NNE,13,5.0,7.0,95,0.00,,,0.01,0.0,meteohub,2013-04-12 08:17:00,
2013-04-12 03:23:00,28.8,27.5,29.83,North,0,1.0,5.0,95,0.00,,,0.01,0.0,meteohub,2013-04-12 08:23:00,
2013-04-12 03:29:00,28.6,27.3,29.83,North,355,3.0,7.0,95,0.00,,,0.01,0.0,meteohub,2013-04-12 08:29:00,
2013-04-12 03:36:00,28.6,27.3,29.83,NE,44,2.0,7.0,95,0.00,,,0.01,0.0,meteohub,2013-04-12 08:36:00,
2013-04-12 03:42:00,28.4,27.1,29.83,NE,42,2.0,9.0,95,0.00,,,0.01,0.0,meteohub,2013-04-12 08:42:00,
2013-04-12 03:48:00,28.2,26.8,29.83,NNE,13,3.0,9.0,94,0.00,,,0.01,0.0,meteohub,2013-04-12 08:48:00,
2013-04-12 03:54:00,28.0,26.6,29.83,NNE,30,2.0,9.0,94,0.00,,,0.01,0.0,meteohub,2013-04-12 08:54:00,
2013-04-12 04:01:00,28.0,26.6,29.83,North,5,3.0,7.0,94,0.00,,,0.01,0.0,meteohub,2013-04-12 09:01:00,
2013-04-12 04:07:00,28.0,26.6,29.83,North,355,2.0,7.0,94,0.00,,,0.01,0.0,meteohub,2013-04-12 09:07:00,
2013-04-12 04:13:00,27.9,26.4,29.84,NNE,24,3.0,8.0,94,0.00,,,0.01,0.0,meteohub,2013-04-12 09:13:00,
2013-04-12 04:19:00,27.9,26.4,29.84,NNE,19,3.0,7.0,94,0.00,,,0.01,0.0,meteohub,2013-04-12 09:19:00,
2013-04-12 04:25:00,27.9,26.4,29.83,NNW,342,2.0,7.0,94,0.00,,,0.01,0.0,meteohub,2013-04-12 09:25:00,
2013-04-12 04:32:00,27.9,26.4,29.83,North,0,4.0,7.0,94,0.00,,,0.01,0.0,meteohub,2013-04-12 09:32:00,
2013-04-12 04:38:00,27.9,26.4,29.83,NNE,17,2.0,6.0,94,0.00,,,0.01,0.0,meteohub,2013-04-12 09:38:00,
2013-04-12 04:44:00,27.9,26.4,29.83,NNE,30,2.0,6.0,94,0.00,,,0.01,0.0,meteohub,2013-04-12 09:44:00,
2013-04-12 04:50:00,27.9,26.4,29.83,North,350,2.0,5.0,94,0.00,,,0.01,0.0,meteohub,2013-04-12 09:50:00,
2013-04-12 04:57:00,27.9,26.4,29.83,North,355,1.0,5.0,94,0.00,,,0.01,0.0,meteohub,2013-04-12 09:57:00,
2013-04-12 05:03:00,27.9,26.4,29.83,North,0,1.0,6.0,94,0.00,,,0.01,0.0,meteohub,2013-04-12 10:03:00,
2013-04-12 05:10:00,27.9,26.4,29.83,NNW,336,2.0,6.0,94,0.00,,,0.01,0.0,meteohub,2013-04-12 10:10:00,
2013-04-12 05:16:00,27.7,26.2,29.83,North,355,4.0,6.0,94,0.00,,,0.01,0.0,meteohub,2013-04-12 10:16:00,
2013-04-12 05:22:00,27.7,26.2,29.83,NE,44,2.0,6.0,94,0.00,,,0.01,0.0,meteohub,2013-04-12 10:22:00,
2013-04-12 05:28:00,27.7,26.2,29.83,NNE,23,2.0,6.0,94,0.00,,,0.01,0.0,meteohub,2013-04-12 10:28:00,
2013-04-12 05:34:00,27.7,26.2,29.83,NNE,30,2.0,7.0,94,0.00,,,0.01,0.0,meteohub,2013-04-12 10:34:00,
2013-04-12 05:41:00,27.7,26.2,29.83,North,355,2.0,7.0,94,0.00,,,0.01,0.0,meteohub,2013-04-12 10:41:00,
2013-04-12 05:47:00,27.7,26.2,29.83,NNW,346,3.0,7.0,94,0.00,,,0.01,0.0,meteohub,2013-04-12 10:47:00,
2013-04-12 05:53:00,27.7,26.2,29.83,North,0,3.0,7.0,94,0.00,,,0.01,0.0,meteohub,2013-04-12 10:53:00,
2013-04-12 05:59:00,27.7,26.2,29.83,North,11,3.0,7.0,94,0.00,,,0.01,0.0,meteohub,2013-04-12 10:59:00,
2013-04-12 06:06:00,27.7,26.2,29.83,North,5,2.0,7.0,94,0.00,,,0.01,0.0,meteohub,2013-04-12 11:06:00,
2013-04-12 06:12:00,27.7,26.2,29.83,North,5,1.0,7.0,94,0.00,,,0.01,0.0,meteohub,2013-04-12 11:12:00,
2013-04-12 06:19:00,27.7,26.2,29.83,North,355,3.0,10.0,94,0.00,,,0.01,0.0,meteohub,2013-04-12 11:19:00,
2013-04-12 06:25:00,27.9,26.4,29.83,North,355,2.0,10.0,94,0.00,,,0.01,0.0,meteohub,2013-04-12 11:25:00,
2013-04-12 06:31:00,27.7,26.2,29.83,NNE,27,3.0,10.0,94,0.00,,,0.01,0.0,meteohub,2013-04-12 11:31:00,
2013-04-12 06:37:00,27.9,26.4,29.83,NNE,30,3.0,10.0,94,0.00,,,0.01,0.0,meteohub,2013-04-12 11:37:00,
2013-04-12 06:44:00,27.9,26.4,29.83,NNW,346,2.0,6.0,94,0.00,,,0.01,5.0,meteohub,2013-04-12 11:44:00,
2013-04-12 06:50:00,27.9,26.6,29.83,North,11,1.0,6.0,95,0.00,,,0.01,11.0,meteohub,2013-04-12 11:50:00,
2013-04-12 06:56:00,27.9,26.6,29.83,NNE,24,2.0,6.0,95,0.00,,,0.01,16.0,meteohub,2013-04-12 11:56:00,
2013-04-12 07:02:00,27.9,26.4,29.83,ENE,59,2.0,7.0,94,0.00,,,0.01,23.0,meteohub,2013-04-12 12:02:00,
2013-04-12 07:09:00,28.0,26.8,29.83,NNE,33,2.0,7.0,95,0.00,,,0.01,32.0,meteohub,2013-04-12 12:09:00,
2013-04-12 07:15:00,28.0,26.6,29.83,North,5,3.0,7.0,94,0.00,,,0.01,40.0,meteohub,2013-04-12 12:15:00,
2013-04-12 07:21:00,28.2,26.8,29.83,North,349,2.0,5.0,94,0.00,,,0.01,42.0,meteohub,2013-04-12 12:21:00,
2013-04-12 07:27:00,28.4,27.0,29.83,NNE,16,2.0,5.0,94,0.00,,,0.01,42.0,meteohub,2013-04-12 12:27:00,
2013-04-12 07:34:00,28.4,27.0,29.83,North,5,2.0,5.0,94,0.00,,,0.01,40.0,meteohub,2013-04-12 12:34:00,
2013-04-12 07:40:00,28.6,27.1,29.83,NE,34,1.0,6.0,94,0.00,,,0.01,40.0,meteohub,2013-04-12 12:40:00,
2013-04-12 07:46:00,28.6,27.1,29.83,North,5,1.0,6.0,94,0.00,,,0.01,40.0,meteohub,2013-04-12 12:46:00,
2013-04-12 07:52:00,28.6,27.1,29.84,North,355,2.0,6.0,94,0.00,,,0.01,42.0,meteohub,2013-04-12 12:52:00,
2013-04-12 07:59:00,28.8,27.3,29.84,North,355,1.0,5.0,94,0.00,,,0.01,46.0,meteohub,2013-04-12 12:59:00,
2013-04-12 08:05:00,28.8,27.3,29.84,NNE,13,1.0,5.0,94,0.00,,,0.01,47.0,meteohub,2013-04-12 13:05:00,
2013-04-12 08:11:00,28.9,27.5,29.84,NNW,348,1.0,5.0,94,0.00,,,0.01,39.0,meteohub,2013-04-12 13:11:00,
2013-04-12 08:17:00,28.9,27.5,29.84,NNW,332,1.0,5.0,94,0.00,,,0.01,39.0,meteohub,2013-04-12 13:17:00,
2013-04-12 08:23:00,28.9,27.5,29.84,NNE,20,2.0,5.0,94,0.00,,,0.01,58.0,meteohub,2013-04-12 13:23:00,
2013-04-12 08:30:00,29.1,27.7,29.84,North,0,2.0,4.0,94,0.00,,,0.01,81.0,meteohub,2013-04-12 13:30:00,
2013-04-12 08:36:00,29.7,28.2,29.84,North,9,2.0,4.0,94,0.00,,,0.01,125.0,meteohub,2013-04-12 13:36:00,
2013-04-12 08:42:00,30.0,28.2,29.84,North,5,2.0,6.0,93,0.00,,,0.01,121.0,meteohub,2013-04-12 13:42:00,
2013-04-12 08:49:00,30.6,28.8,29.84,NNW,336,1.0,6.0,93,0.00,,,0.01,195.0,meteohub,2013-04-12 13:49:00,
2013-04-12 08:55:00,31.1,29.1,29.83,NE,38,1.0,6.0,92,0.00,,,0.01,262.0,meteohub,2013-04-12 13:55:00,
2013-04-12 09:01:00,31.3,29.3,29.83,North,355,2.0,6.0,92,0.00,,,0.02,216.0,meteohub,2013-04-12 14:01:00,
2013-04-12 09:07:00,31.1,28.8,29.83,NE,43,2.0,6.0,91,0.01,,,0.02,188.0,meteohub,2013-04-12 14:07:00,
2013-04-12 09:14:00,31.1,28.8,29.84,NE,51,2.0,6.0,91,0.02,,,0.03,171.0,meteohub,2013-04-12 14:14:00,
2013-04-12 09:20:00,31.1,28.8,29.84,NE,38,3.0,6.0,91,0.02,,,0.03,155.0,meteohub,2013-04-12 14:20:00,
2013-04-12 09:26:00,30.7,28.2,29.84,NE,55,2.0,7.0,90,0.03,,,0.03,156.0,meteohub,2013-04-12 14:26:00,
2013-04-12 09:32:00,30.7,28.2,29.84,NE,42,1.0,7.0,90,0.03,,,0.04,167.0,meteohub,2013-04-12 14:32:00,
2013-04-12 09:38:00,30.9,28.4,29.84,North,5,2.0,7.0,90,0.03,,,0.04,158.0,meteohub,2013-04-12 14:38:00,
2013-04-12 09:45:00,30.9,28.4,29.84,NNW,346,5.0,6.0,90,0.03,,,0.04,178.0,meteohub,2013-04-12 14:45:00,
2013-04-12 09:51:00,30.9,28.4,29.84,NE,35,1.0,6.0,90,0.03,,,0.04,167.0,meteohub,2013-04-12 14:51:00,
2013-04-12 09:57:00,31.1,28.6,29.85,NNE,17,2.0,6.0,90,0.03,,,0.04,142.0,meteohub,2013-04-12 14:57:00,
2013-04-12 10:04:00,31.3,28.4,29.85,North,355,0.0,6.0,89,0.03,,,0.05,149.0,meteohub,2013-04-12 15:04:00,
2013-04-12 10:10:00,31.3,28.8,29.85,NE,39,1.0,4.0,90,0.03,,,0.05,139.0,meteohub,2013-04-12 15:10:00,
2013-04-12 10:17:00,31.3,28.8,29.85,North,5,2.0,4.0,90,0.02,,,0.05,120.0,meteohub,2013-04-12 15:17:00,
2013-04-12 10:23:00,31.3,28.8,29.85,North,349,1.0,4.0,90,0.02,,,0.05,163.0,meteohub,2013-04-12 15:23:00,
2013-04-12 10:29:00,31.5,28.9,29.85,North,5,3.0,3.0,90,0.01,,,0.05,160.0,meteohub,2013-04-12 15:29:00,
2013-04-12 10:35:00,31.5,28.6,29.85,NW,309,0.0,4.0,89,0.02,,,0.06,149.0,meteohub,2013-04-12 15:35:00,
2013-04-12 10:42:00,31.6,29.1,29.86,NNE,12,1.0,4.0,90,0.02,,,0.06,135.0,meteohub,2013-04-12 15:42:00,
2013-04-12 10:48:00,31.5,28.6,29.86,West,281,3.0,5.0,89,0.02,,,0.06,151.0,meteohub,2013-04-12 15:48:00,
2013-04-12 10:54:00,31.5,28.6,29.86,North,355,1.0,5.0,89,0.01,,,0.06,149.0,meteohub,2013-04-12 15:54:00,
2013-04-12 11:00:00,31.6,29.1,29.86,NNW,340,3.0,5.0,90,0.01,,,0.06,171.0,meteohub,2013-04-12 16:00:00,
2013-04-12 11:07:00,31.6,28.8,29.86,NNE,31,1.0,4.0,89,0.01,,,0.06,162.0,meteohub,2013-04-12 16:07:00,
2013-04-12 11:13:00,31.8,28.9,29.86,NNE,19,0.0,4.0,89,0.01,,,0.06,149.0,meteohub,2013-04-12 16:13:00,
2013-04-12 11:19:00,32.0,29.1,29.86,NW,313,0.0,4.0,89,0.01,,,0.06,135.0,meteohub,2013-04-12 16:19:00,
2013-04-12 11:25:00,32.0,29.1,29.86,NNW,327,1.0,5.0,89,0.01,,,0.06,160.0,meteohub,2013-04-12 16:25:00,
2013-04-12 11:32:00,32.2,29.3,29.86,NNW,343,0.0,5.0,89,0.01,,,0.06,149.0,meteohub,2013-04-12 16:32:00,
2013-04-12 11:38:00,32.2,29.3,29.86,WNW,289,2.0,5.0,89,0.00,,,0.06,250.0,meteohub,2013-04-12 16:38:00,
2013-04-12 11:44:00,32.4,29.5,29.86,WNW,302,2.0,5.0,89,0.00,,,0.06,213.0,meteohub,2013-04-12 16:44:00,
2013-04-12 11:50:00,32.4,29.5,29.87,NW,309,3.0,5.0,89,0.00,,,0.06,186.0,meteohub,2013-04-12 16:50:00,
2013-04-12 11:56:00,32.4,29.1,29.87,North,355,4.0,6.0,88,0.00,,,0.06,209.0,meteohub,2013-04-12 16:56:00,
2013-04-12 12:02:00,32.4,28.9,29.87,North,11,5.0,6.0,87,0.00,,,0.06,174.0,meteohub,2013-04-12 17:02:00,
2013-04-12 12:07:00,32.5,29.3,29.87,NNE,15,0.0,6.0,88,0.00,,,0.06,174.0,meteohub,2013-04-12 17:07:00,
2013-04-12 12:13:00,32.7,29.5,29.87,NNE,13,3.0,6.0,88,0.00,,,0.06,197.0,meteohub,2013-04-12 17:13:00,
2013-04-12 12:19:00,32.5,29.1,29.87,North,5,4.0,6.0,87,0.00,,,0.06,218.0,meteohub,2013-04-12 17:19:00,
2013-04-12 12:26:00,32.7,29.3,29.86,NNW,340,3.0,6.0,87,0.00,,,0.06,246.0,meteohub,2013-04-12 17:26:00,
2013-04-12 12:32:00,32.7,29.3,29.87,North,11,3.0,5.0,87,0.00,,,0.06,250.0,meteohub,2013-04-12 17:32:00,
2013-04-12 12:38:00,33.1,29.7,29.86,NNW,337,3.0,5.0,87,0.00,,,0.06,216.0,meteohub,2013-04-12 17:38:00,
2013-04-12 12:44:00,33.3,29.8,29.86,WNW,294,2.0,7.0,87,0.00,,,0.06,229.0,meteohub,2013-04-12 17:44:00,
2013-04-12 12:50:00,33.3,29.5,29.86,North,355,2.0,7.0,86,0.00,,,0.06,230.0,meteohub,2013-04-12 17:50:00,
2013-04-12 12:56:00,33.4,29.7,29.86,NW,323,2.0,7.0,86,0.00,,,0.06,285.0,meteohub,2013-04-12 17:56:00,
2013-04-12 13:02:00,33.4,29.7,29.86,NNW,336,2.0,7.0,86,0.00,,,0.06,318.0,meteohub,2013-04-12 18:02:00,
2013-04-12 13:07:00,33.4,29.7,29.86,NNE,19,2.0,7.0,86,0.00,,,0.06,309.0,meteohub,2013-04-12 18:07:00,
2013-04-12 13:14:00,34.0,30.0,29.87,North,350,3.0,5.0,85,0.00,,,0.06,318.0,meteohub,2013-04-12 18:14:00,
2013-04-12 13:20:00,34.2,30.2,29.86,WNW,289,3.0,5.0,85,0.00,,,0.06,327.0,meteohub,2013-04-12 18:20:00,
2013-04-12 13:25:00,34.2,30.2,29.86,WNW,284,1.0,5.0,85,0.00,,,0.06,327.0,meteohub,2013-04-12 18:25:00,
2013-04-12 14:26:00,35.8,30.2,29.86,North,0,3.0,8.0,80,0.00,,,0.06,359.0,meteohub,2013-04-12 19:26:00,
2013-04-12 14:28:00,35.8,29.7,29.86,NNE,30,1.0,8.0,78,0.00,,,0.06,425.0,meteohub,2013-04-12 19:28:00,
2013-04-12 14:30:00,35.8,29.7,29.86,North,0,3.0,8.0,78,0.00,,,0.06,478.0,meteohub,2013-04-12 19:30:00,
2013-04-12 14:34:00,36.1,29.7,29.86,North,5,2.0,8.0,77,0.00,,,0.06,408.0,meteohub,2013-04-12 19:34:00,
2013-04-12 14:40:00,36.1,29.7,29.87,NW,316,1.0,8.0,77,0.00,,,0.06,274.0,meteohub,2013-04-12 19:40:00,
2013-04-12 14:46:00,36.0,29.5,29.87,NNW,341,3.0,8.0,77,0.00,,,0.06,330.0,meteohub,2013-04-12 19:46:00,
2013-04-12 14:53:00,36.1,29.7,29.87,NE,42,1.0,8.0,77,0.00,,,0.06,334.0,meteohub,2013-04-12 19:53:00,
2013-04-12 14:59:00,36.1,29.3,29.87,North,355,0.0,8.0,76,0.00,,,0.06,313.0,meteohub,2013-04-12 19:59:00,
2013-04-12 15:05:00,36.1,29.7,29.87,North,0,10.0,10.0,77,0.00,,,0.06,353.0,meteohub,2013-04-12 20:05:00,
2013-04-12 15:11:00,36.1,29.7,29.88,NE,37,4.0,9.0,77,0.00,,,0.06,204.0,meteohub,2013-04-12 20:11:00,
2013-04-12 15:17:00,35.8,28.9,29.88,NW,325,2.0,11.0,76,0.00,,,0.06,244.0,meteohub,2013-04-12 20:17:00,
2013-04-12 15:22:00,35.8,28.9,29.88,North,5,2.0,11.0,76,0.00,,,0.06,274.0,meteohub,2013-04-12 20:22:00,
2013-04-12 15:28:00,35.8,29.3,29.88,WNW,302,6.0,8.0,77,0.00,,,0.06,364.0,meteohub,2013-04-12 20:28:00,
2013-04-12 15:34:00,36.0,29.8,29.88,NE,56,1.0,8.0,78,0.00,,,0.06,330.0,meteohub,2013-04-12 20:34:00,
2013-04-12 15:40:00,36.1,30.0,29.88,North,10,2.0,8.0,78,0.00,,,0.06,248.0,meteohub,2013-04-12 20:40:00,
2013-04-12 15:47:00,36.0,29.8,29.88,NE,51,1.0,8.0,78,0.00,,,0.06,218.0,meteohub,2013-04-12 20:47:00,
2013-04-12 15:53:00,36.0,29.8,29.88,NNW,342,6.0,8.0,78,0.00,,,0.06,218.0,meteohub,2013-04-12 20:53:00,
2013-04-12 15:59:00,35.8,29.3,29.88,North,5,1.0,8.0,77,0.00,,,0.06,181.0,meteohub,2013-04-12 20:59:00,
2013-04-12 16:05:00,35.6,29.1,29.88,North,9,3.0,7.0,77,0.00,,,0.06,178.0,meteohub,2013-04-12 21:05:00,
2013-04-12 16:11:00,35.6,29.5,29.88,ENE,61,2.0,7.0,78,0.00,,,0.06,128.0,meteohub,2013-04-12 21:11:00,
2013-04-12 16:17:00,35.4,29.5,29.89,NNW,331,0.0,6.0,79,0.00,,,0.06,135.0,meteohub,2013-04-12 21:17:00,
2013-04-12 16:22:00,35.2,29.1,29.89,NNW,340,0.0,6.0,78,0.00,,,0.06,171.0,meteohub,2013-04-12 21:22:00,
2013-04-12 16:28:00,35.4,29.3,29.89,NNE,32,2.0,8.0,78,0.00,,,0.06,200.0,meteohub,2013-04-12 21:28:00,
2013-04-12 16:34:00,35.4,29.3,29.89,WNW,298,3.0,8.0,78,0.00,,,0.06,216.0,meteohub,2013-04-12 21:34:00,
2013-04-12 16:40:00,35.4,28.6,29.89,North,355,4.0,8.0,76,0.00,,,0.06,186.0,meteohub,2013-04-12 21:40:00,
2013-04-12 16:46:00,35.4,28.6,29.89,NNE,24,2.0,9.0,76,0.00,,,0.06,135.0,meteohub,2013-04-12 21:46:00,
2013-04-12 16:53:00,35.4,28.9,29.90,North,0,6.0,9.0,77,0.00,,,0.06,151.0,meteohub,2013-04-12 21:53:00,
2013-04-12 16:59:00,35.2,28.8,29.90,NNW,342,2.0,6.0,77,0.00,,,0.06,172.0,meteohub,2013-04-12 21:59:00,
2013-04-12 17:05:00,35.4,28.9,29.90,NW,326,3.0,7.0,77,0.00,,,0.06,167.0,meteohub,2013-04-12 22:05:00,
2013-04-12 17:11:00,35.2,28.4,29.90,North,355,2.0,7.0,76,0.00,,,0.06,125.0,meteohub,2013-04-12 22:11:00,
2013-04-12 17:17:00,35.2,28.8,29.90,NNW,348,2.0,7.0,77,0.00,,,0.06,114.0,meteohub,2013-04-12 22:17:00,
2013-04-12 17:22:00,35.1,28.6,29.90,NE,39,1.0,7.0,77,0.00,,,0.06,114.0,meteohub,2013-04-12 22:22:00,
2013-04-12 17:28:00,35.2,29.1,29.91,NW,304,3.0,8.0,78,0.00,,,0.06,105.0,meteohub,2013-04-12 22:28:00,
2013-04-12 17:34:00,35.1,28.9,29.91,North,355,2.0,8.0,78,0.00,,,0.06,93.0,meteohub,2013-04-12 22:34:00,
2013-04-12 17:40:00,34.9,29.1,29.91,North,5,1.0,8.0,79,0.00,,,0.06,69.0,meteohub,2013-04-12 22:40:00,
2013-04-12 17:47:00,34.7,28.9,29.91,WNW,285,0.0,8.0,79,0.00,,,0.06,74.0,meteohub,2013-04-12 22:47:00,
2013-04-12 17:53:00,34.5,28.9,29.91,NW,325,3.0,8.0,80,0.00,,,0.06,95.0,meteohub,2013-04-12 22:53:00,
2013-04-12 17:59:00,34.5,29.3,29.92,North,5,2.0,9.0,81,0.00,,,0.06,93.0,meteohub,2013-04-12 22:59:00,
2013-04-12 18:05:00,34.3,29.1,29.92,North,5,0.0,9.0,81,0.00,,,0.06,100.0,meteohub,2013-04-12 23:05:00,
2013-04-12 18:12:00,34.5,29.3,29.92,NNE,28,1.0,6.0,81,0.00,,,0.06,105.0,meteohub,2013-04-12 23:12:00,
2013-04-12 18:18:00,34.5,29.3,29.92,NNW,344,5.0,5.0,81,0.00,,,0.06,88.0,meteohub,2013-04-12 23:18:00,
2013-04-12 18:24:00,34.3,29.1,29.92,NNE,28,2.0,5.0,81,0.00,,,0.06,39.0,meteohub,2013-04-12 23:24:00,
2013-04-12 18:30:00,33.6,29.3,29.93,NNE,27,8.0,9.0,84,0.00,,,0.06,35.0,meteohub,2013-04-12 23:30:00,
2013-04-12 18:36:00,33.1,29.3,29.93,NNW,344,1.0,9.0,86,0.00,,,0.06,63.0,meteohub,2013-04-12 23:36:00,
2013-04-12 18:43:00,32.7,29.3,29.93,NNW,337,1.0,10.0,87,0.00,,,0.06,60.0,meteohub,2013-04-12 23:43:00,
2013-04-12 18:49:00,32.7,29.3,29.93,NW,306,3.0,10.0,87,0.00,,,0.06,58.0,meteohub,2013-04-12 23:49:00,
2013-04-12 18:55:00,32.7,29.3,29.94,NNE,12,1.0,10.0,87,0.00,,,0.06,53.0,meteohub,2013-04-12 23:55:00,
2013-04-12 19:01:00,32.7,28.9,29.94,NNW,336,4.0,5.0,86,0.00,,,0.06,51.0,meteohub,2013-04-13 00:01:00,
2013-04-12 19:07:00,32.5,28.8,29.94,NNE,26,4.0,7.0,86,0.01,,,0.07,51.0,meteohub,2013-04-13 00:07:00,
2013-04-12 19:14:00,32.5,28.6,29.94,North,9,1.0,7.0,85,0.01,,,0.07,53.0,meteohub,2013-04-13 00:14:00,
2013-04-12 19:20:00,32.7,28.8,29.94,North,9,2.0,7.0,85,0.01,,,0.07,49.0,meteohub,2013-04-13 00:20:00,
2013-04-12 19:26:00,32.7,28.8,29.94,North,355,3.0,6.0,85,0.01,,,0.07,35.0,meteohub,2013-04-13 00:26:00,
2013-04-12 19:32:00,32.7,28.8,29.94,NW,311,2.0,6.0,85,0.01,,,0.07,25.0,meteohub,2013-04-13 00:32:00,
2013-04-12 19:38:00,32.5,28.2,29.95,NNW,347,2.0,6.0,84,0.01,,,0.07,18.0,meteohub,2013-04-13 00:38:00,
2013-04-12 19:45:00,32.7,28.2,29.94,North,355,2.0,9.0,83,0.01,,,0.07,11.0,meteohub,2013-04-13 00:45:00,
2013-04-12 19:51:00,32.5,28.2,29.95,NNW,345,3.0,9.0,84,0.01,,,0.07,7.0,meteohub,2013-04-13 00:51:00,
2013-04-12 19:57:00,32.5,28.2,29.95,NNW,331,2.0,9.0,84,0.01,,,0.07,0.0,meteohub,2013-04-13 00:57:00,
2013-04-12 20:04:00,32.5,28.2,29.95,NNW,344,5.0,9.0,84,0.01,,,0.07,0.0,meteohub,2013-04-13 01:04:00,
2013-04-12 20:10:00,32.4,28.0,29.95,NNW,333,3.0,7.0,84,0.00,,,0.07,0.0,meteohub,2013-04-13 01:10:00,
2013-04-12 20:17:00,32.4,27.5,29.96,North,5,4.0,6.0,82,0.00,,,0.07,0.0,meteohub,2013-04-13 01:17:00,
2013-04-12 20:23:00,32.2,27.0,29.96,NNE,29,3.0,6.0,81,0.00,,,0.07,0.0,meteohub,2013-04-13 01:23:00,
2013-04-12 20:29:00,31.8,26.6,29.96,North,349,3.0,11.0,81,0.00,,,0.07,0.0,meteohub,2013-04-13 01:29:00,
2013-04-12 20:35:00,31.8,26.6,29.96,North,350,3.0,7.0,81,0.00,,,0.07,0.0,meteohub,2013-04-13 01:35:00,
2013-04-12 20:41:00,31.6,26.4,29.96,NNW,343,5.0,7.0,81,0.00,,,0.07,0.0,meteohub,2013-04-13 01:41:00,
2013-04-12 20:47:00,31.6,26.8,29.96,North,355,3.0,7.0,82,0.00,,,0.07,0.0,meteohub,2013-04-13 01:47:00,
2013-04-12 20:52:00,31.6,27.1,29.96,NNW,339,0.0,7.0,83,0.00,,,0.07,0.0,meteohub,2013-04-13 01:52:00,
2013-04-12 20:58:00,31.5,27.1,29.97,North,0,1.0,8.0,84,0.00,,,0.07,0.0,meteohub,2013-04-13 01:58:00,
2013-04-12 21:04:00,31.3,27.0,29.97,NNE,15,0.0,8.0,84,0.00,,,0.07,0.0,meteohub,2013-04-13 02:04:00,
2013-04-12 21:10:00,31.3,27.0,29.97,NNW,336,1.0,6.0,84,0.00,,,0.07,0.0,meteohub,2013-04-13 02:10:00,
2013-04-12 21:17:00,31.3,27.0,29.98,North,0,1.0,8.0,84,0.00,,,0.07,0.0,meteohub,2013-04-13 02:17:00,
2013-04-12 21:22:00,31.3,27.3,29.98,NW,325,2.0,8.0,85,0.00,,,0.07,0.0,meteohub,2013-04-13 02:22:00,
2013-04-12 21:29:00,31.1,27.3,29.98,North,351,2.0,8.0,86,0.00,,,0.07,0.0,meteohub,2013-04-13 02:29:00,
2013-04-12 21:35:00,30.9,27.5,29.98,NNW,348,2.0,4.0,87,0.00,,,0.07,0.0,meteohub,2013-04-13 02:35:00,
2013-04-12 21:41:00,30.9,27.5,29.98,NNW,344,3.0,4.0,87,0.00,,,0.07,0.0,meteohub,2013-04-13 02:41:00,
2013-04-12 21:47:00,30.9,27.5,29.99,North,5,2.0,6.0,87,0.00,,,0.07,0.0,meteohub,2013-04-13 02:47:00,
2013-04-12 21:52:00,30.9,27.5,29.99,North,355,1.0,6.0,87,0.00,,,0.07,0.0,meteohub,2013-04-13 02:52:00,
2013-04-12 21:58:00,30.7,27.7,29.99,NNW,341,2.0,6.0,88,0.00,,,0.07,0.0,meteohub,2013-04-13 02:58:00,
2013-04-12 22:04:00,30.7,27.7,29.99,NNW,345,3.0,6.0,88,0.00,,,0.07,0.0,meteohub,2013-04-13 03:04:00,
2013-04-12 22:10:00,30.7,27.7,29.99,NW,323,2.0,7.0,88,0.00,,,0.07,0.0,meteohub,2013-04-13 03:10:00,
2013-04-12 22:17:00,30.7,27.7,29.99,NNW,332,0.0,7.0,88,0.00,,,0.07,0.0,meteohub,2013-04-13 03:17:00,
2013-04-12 22:23:00,30.6,27.5,29.99,NNW,333,1.0,7.0,88,0.00,,,0.07,0.0,meteohub,2013-04-13 03:23:00,
2013-04-12 22:29:00,30.6,27.5,29.99,NW,318,2.0,5.0,88,0.00,,,0.07,0.0,meteohub,2013-04-13 03:29:00,
2013-04-12 22:36:00,30.6,27.5,29.99,North,351,2.0,5.0,88,0.00,,,0.07,0.0,meteohub,2013-04-13 03:36:00,
2013-04-12 22:42:00,30.6,27.5,29.99,NNW,338,3.0,5.0,88,0.00,,,0.07,0.0,meteohub,2013-04-13 03:42:00,
2013-04-12 22:48:00,30.6,27.5,29.99,NNE,25,0.0,7.0,88,0.00,,,0.07,0.0,meteohub,2013-04-13 03:48:00,
2013-04-12 22:54:00,30.6,27.5,29.99,NNE,22,2.0,7.0,88,0.00,,,0.07,0.0,meteohub,2013-04-13 03:54:00,
2013-04-12 23:00:00,30.4,27.5,29.99,North,355,2.0,7.0,89,0.00,,,0.07,0.0,meteohub,2013-04-13 04:00:00,
2013-04-12 23:04:00,30.4,27.5,29.99,North,355,0.0,7.0,89,0.00,,,0.07,0.0,meteohub,2013-04-13 04:04:00,
2013-04-12 23:07:00,30.4,27.5,29.99,North,355,1.0,6.0,89,0.00,,,0.07,0.0,meteohub,2013-04-13 04:07:00,
2013-04-12 23:13:00,30.4,27.5,29.99,NNW,343,0.0,6.0,89,0.00,,,0.07,0.0,meteohub,2013-04-13 04:13:00,
2013-04-12 23:17:00,30.4,27.5,29.99,NNW,341,3.0,6.0,89,0.00,,,0.07,0.0,meteohub,2013-04-13 04:17:00,
2013-04-12 23:23:00,30.4,27.5,29.99,NNW,342,2.0,6.0,89,0.00,,,0.07,0.0,meteohub,2013-04-13 04:23:00,
2013-04-12 23:29:00,30.4,27.5,29.99,NNW,340,0.0,4.0,89,0.00,,,0.07,0.0,meteohub,2013-04-13 04:29:00,
2013-04-12 23:35:00,30.4,27.5,29.99,NNW,345,2.0,4.0,89,0.00,,,0.07,0.0,meteohub,2013-04-13 04:35:00,
2013-04-12 23:42:00,30.2,27.3,29.99,NNW,344,1.0,4.0,89,0.00,,,0.07,0.0,meteohub,2013-04-13 04:42:00,
2013-04-12 23:48:00,30.2,27.3,29.99,North,355,1.0,5.0,89,0.00,,,0.07,0.0,meteohub,2013-04-13 04:48:00,
2013-04-12 23:54:00,30.0,27.0,29.99,North,5,2.0,8.0,88,0.00,,,0.07,0.0,meteohub,2013-04-13 04:54:00,